Time;durP1;ratioP1;P1;durP2;ratioP2;P2;SDS_P1;SDS_P2;PMS_P1;PMS_P2;Temp;Humidity;BMP_temperature;BMP_pressure;BME280_temperature;BME280_humidity;BME280_pressure;Samples;Min_cycle;Max_cycle;Signal;HPM_P1;HPM_P2
2022/10/03 00:01:11;;;;;;;5.30;1.30;;;7.80;99.90;;;;;;4973928;28;20121;-60
2022/10/03 00:03:46;;;;;;;5.28;1.73;;;7.80;99.90;;;;;;4962597;28;20049;-58
2022/10/03 00:06:28;;;;;;;2.55;1.42;;;7.80;99.90;;;;;;4972832;28;20043;-58
2022/10/03 00:09:08;;;;;;;1.25;0.90;;;7.70;99.90;;;;;;4962750;28;20144;-58
2022/10/03 00:12:02;;;;;;;1.45;0.95;;;7.60;99.90;;;;;;4970980;28;20505;-58
2022/10/03 00:14:30;;;;;;;1.88;0.82;;;7.60;99.90;;;;;;4973097;28;20050;-59
2022/10/03 00:17:13;;;;;;;1.45;0.88;;;7.70;99.90;;;;;;4985683;28;20057;-58
2022/10/03 00:20:12;;;;;;;0.88;0.70;;;7.80;99.90;;;;;;4965018;28;20027;-58
2022/10/03 00:22:44;;;;;;;2.67;1.10;;;7.80;99.90;;;;;;4966529;28;20487;-58
2022/10/03 00:25:18;;;;;;;;;;;7.70;99.90;;;;;;4975905;28;20088;-60
2022/10/03 00:27:54;;;;;;;0.93;0.70;;;7.70;99.90;;;;;;4974188;28;19914;-59
2022/10/03 00:30:22;;;;;;;3.70;1.10;;;7.60;99.90;;;;;;4966845;28;20078;-58
2022/10/03 00:33:01;;;;;;;3.20;0.90;;;7.60;99.90;;;;;;4970958;28;20058;-63
2022/10/03 00:35:35;;;;;;;3.78;1.13;;;7.50;99.90;;;;;;4970467;28;20094;-59
2022/10/03 00:38:45;;;;;;;4.57;1.05;;;7.50;99.90;;;;;;4974395;28;20377;-58
2022/10/03 00:41:13;;;;;;;2.75;1.13;;;7.50;99.90;;;;;;4977374;28;20027;-59
2022/10/03 00:44:01;;;;;;;1.17;0.77;;;7.50;99.90;;;;;;4968593;28;20497;-59
2022/10/03 00:46:35;;;;;;;3.20;0.95;;;7.60;99.90;;;;;;4964765;28;20061;-58
2022/10/03 00:49:19;;;;;;;2.17;1.17;;;7.60;99.90;;;;;;4978719;28;20367;-59
2022/10/03 00:51:48;;;;;;;3.30;0.70;;;7.50;99.90;;;;;;4969446;28;20031;-58
2022/10/03 00:54:40;;;;;;;2.65;0.90;;;7.40;99.90;;;;;;4969271;28;20426;-58
2022/10/03 00:57:49;;;;;;;1.58;1.00;;;7.50;99.90;;;;;;4973055;28;20035;-59
2022/10/03 01:00:32;;;;;;;1.45;0.82;;;7.40;99.90;;;;;;4973796;28;20496;-59
2022/10/03 01:03:19;;;;;;;4.35;1.73;;;7.30;99.90;;;;;;4983019;28;20051;-59
2022/10/03 01:05:58;;;;;;;1.55;1.00;;;7.30;99.90;;;;;;4997800;28;20031;-59
2022/10/03 01:08:51;;;;;;;0.95;0.60;;;7.20;99.90;;;;;;4973803;28;20031;-57
2022/10/03 01:11:19;;;;;;;1.58;0.90;;;7.20;99.90;;;;;;4980159;28;20038;-58
2022/10/03 01:14:07;;;;;;;4.53;0.80;;;7.10;99.90;;;;;;4975556;28;20034;-59
2022/10/03 01:17:15;;;;;;;1.50;0.60;;;7.00;99.90;;;;;;4972652;28;20034;-59
2022/10/03 01:20:16;;;;;;;0.80;0.65;;;7.00;99.90;;;;;;4971379;28;20031;-58
2022/10/03 01:22:48;;;;;;;1.27;0.93;;;7.00;99.90;;;;;;4931904;29;20126;-58
2022/10/03 01:25:37;;;;;;;1.23;0.60;;;6.90;99.90;;;;;;4933809;29;20488;-59
2022/10/03 01:31:29;;;;;;;0.43;0.40;;;6.90;99.90;;;;;;4930860;29;20039;-58
2022/10/03 01:34:05;;;;;;;2.42;1.10;;;6.90;99.90;;;;;;4933571;29;20083;-58
2022/10/03 01:36:39;;;;;;;1.83;0.98;;;6.80;99.90;;;;;;4930232;29;20413;-58
2022/10/03 01:39:10;;;;;;;0.57;0.50;;;6.80;99.90;;;;;;4933233;29;20036;-60
2022/10/03 01:41:59;;;;;;;6.63;0.70;;;6.80;99.90;;;;;;4925547;29;20230;-57
2022/10/03 01:44:43;;;;;;;2.35;0.80;;;6.70;99.90;;;;;;4922656;29;20051;-58
2022/10/03 01:47:19;;;;;;;1.10;0.60;;;6.60;99.90;;;;;;4930124;29;20036;-58
2022/10/03 01:49:55;;;;;;;0.85;0.57;;;6.60;99.90;;;;;;4937754;29;20038;-60
2022/10/03 01:52:30;;;;;;;0.57;0.47;;;6.60;99.90;;;;;;4931674;29;20039;-59
2022/10/03 01:55:11;;;;;;;0.47;0.40;;;6.60;99.90;;;;;;4927023;29;20134;-59
2022/10/03 01:57:42;;;;;;;1.70;0.73;;;6.50;99.90;;;;;;4971936;28;20475;-58
2022/10/03 02:00:17;;;;;;;0.73;0.53;;;6.50;99.90;;;;;;4971771;28;20518;-59
2022/10/03 02:02:57;;;;;;;0.73;0.70;;;6.40;99.90;;;;;;4973751;28;20379;-60
2022/10/03 02:05:47;;;;;;;2.90;0.60;;;6.40;99.90;;;;;;4971622;28;20038;-58
2022/10/03 02:08:16;;;;;;;1.23;0.90;;;6.50;99.90;;;;;;4982355;28;20065;-58
2022/10/03 02:11:21;;;;;;;1.45;0.75;;;6.40;99.90;;;;;;4978934;28;20038;-58
2022/10/03 02:13:57;;;;;;;1.65;0.85;;;6.40;99.90;;;;;;4984499;28;20471;-58
2022/10/03 02:16:41;;;;;;;0.63;0.38;;;6.40;99.90;;;;;;4964554;28;20034;-59
2022/10/03 02:19:40;;;;;;;1.45;0.55;;;6.30;99.90;;;;;;4979647;28;20403;-59
2022/10/03 02:22:14;;;;;;;1.17;0.95;;;6.30;99.90;;;;;;4967049;28;20047;-58
2022/10/03 02:24:51;;;;;;;1.02;0.50;;;6.30;99.90;;;;;;4977498;28;20054;-58
2022/10/03 02:28:02;;;;;;;3.45;0.77;;;6.30;99.90;;;;;;4976362;28;20027;-58
2022/10/03 02:30:55;;;;;;;0.30;0.30;;;6.20;99.90;;;;;;4959147;28;20109;-58
2022/10/03 02:33:26;;;;;;;0.65;0.43;;;6.20;99.90;;;;;;4970487;28;20031;-59
2022/10/03 02:36:30;;;;;;;0.65;0.60;;;6.30;99.90;;;;;;4981952;28;20061;-58
2022/10/03 02:39:37;;;;;;;1.35;0.60;;;6.30;99.90;;;;;;4930598;29;20130;-58
2022/10/03 02:42:43;;;;;;;1.40;1.05;;;6.30;99.90;;;;;;4930633;29;20031;-59
2022/10/03 02:45:38;;;;;;;1.65;0.63;;;6.40;99.90;;;;;;4902787;29;20048;-58
2022/10/03 02:48:12;;;;;;;1.00;0.68;;;6.40;99.90;;;;;;4922496;29;20066;-59
2022/10/03 02:50:57;;;;;;;2.22;0.57;;;6.30;99.90;;;;;;4930518;29;20039;-58
2022/10/03 02:53:59;;;;;;;1.08;0.80;;;6.30;99.90;;;;;;4929518;29;20526;-59
2022/10/03 02:56:27;;;;;;;2.30;0.70;;;6.30;99.90;;;;;;4929079;29;20500;-58
2022/10/03 02:59:25;;;;;;;0.80;0.63;;;6.30;99.90;;;;;;4929486;29;20027;-58
2022/10/03 03:02:09;;;;;;;0.82;0.70;;;6.10;99.90;;;;;;4931657;29;20118;-57
2022/10/03 03:05:00;;;;;;;0.50;0.50;;;6.30;99.90;;;;;;4924900;29;20046;-58
2022/10/03 03:07:58;;;;;;;2.45;1.10;;;6.20;99.90;;;;;;4930273;29;20028;-57
2022/10/03 03:10:57;;;;;;;1.05;0.50;;;6.20;99.90;;;;;;4927952;29;20035;-57
2022/10/03 03:13:50;;;;;;;1.35;0.55;;;6.10;99.90;;;;;;4923151;29;20503;-58
2022/10/03 03:16:49;;;;;;;1.55;0.75;;;6.10;99.90;;;;;;4975878;28;20034;-59
2022/10/03 03:19:40;;;;;;;1.23;0.50;;;6.10;99.90;;;;;;4974236;28;20026;-60
2022/10/03 03:22:15;;;;;;;0.85;0.50;;;6.10;99.90;;;;;;4985439;28;20491;-58
2022/10/03 03:24:48;;;;;;;3.63;0.70;;;6.10;99.90;;;;;;4981999;28;20046;-58
2022/10/03 03:27:25;;;;;;;4.32;1.00;;;6.10;99.90;;;;;;4985427;28;20038;-59
2022/10/03 03:30:09;;;;;;;0.65;0.65;;;6.00;99.90;;;;;;4968991;28;20063;-60
2022/10/03 03:32:37;;;;;;;3.55;0.63;;;6.00;99.90;;;;;;4983596;28;20050;-59
2022/10/03 03:35:14;;;;;;;0.90;0.52;;;6.00;99.90;;;;;;4982780;28;20046;-59
2022/10/03 03:38:06;;;;;;;0.73;0.50;;;6.00;99.90;;;;;;4979218;28;20037;-59
2022/10/03 03:40:45;;;;;;;2.63;0.50;;;6.00;99.90;;;;;;4974660;28;20022;-58
2022/10/03 03:43:22;;;;;;;4.32;0.70;;;6.00;99.90;;;;;;4977806;28;20505;-59
2022/10/03 03:45:53;;;;;;;1.17;0.80;;;5.90;99.90;;;;;;4973397;28;20055;-58
2022/10/03 03:48:46;;;;;;;2.08;0.90;;;5.90;99.90;;;;;;4974417;28;20062;-57
2022/10/03 03:51:31;;;;;;;1.08;0.63;;;5.90;99.90;;;;;;4980561;28;20100;-59
2022/10/03 03:54:25;;;;;;;2.08;1.00;;;6.00;99.90;;;;;;4978900;28;20026;-59
2022/10/03 03:57:00;;;;;;;0.50;0.40;;;6.00;99.90;;;;;;4975280;28;20030;-58
2022/10/03 03:59:37;;;;;;;3.45;0.52;;;6.10;99.90;;;;;;4974437;28;20065;-58
2022/10/03 04:02:16;;;;;;;1.92;0.90;;;6.20;99.90;;;;;;4985626;28;20114;-58
2022/10/03 04:05:17;;;;;;;2.65;0.90;;;6.30;99.90;;;;;;4977323;28;20414;-58
2022/10/03 04:08:17;;;;;;;1.52;0.57;;;6.30;99.90;;;;;;4981325;28;20471;-58
2022/10/03 04:10:58;;;;;;;1.48;0.82;;;6.30;99.90;;;;;;4973506;28;20113;-58
2022/10/03 04:14:04;;;;;;;2.65;1.05;;;6.20;99.90;;;;;;4977796;28;20106;-59
2022/10/03 04:19:27;;;;;;;4.43;1.00;;;6.40;99.90;;;;;;4969824;28;20174;-60
2022/10/03 04:22:28;;;;;;;1.10;0.98;;;6.50;99.90;;;;;;4987290;28;20109;-59
2022/10/03 04:25:00;;;;;;;0.57;0.50;;;6.50;99.90;;;;;;4970589;28;20034;-59
2022/10/03 04:27:40;;;;;;;1.45;0.75;;;6.50;99.90;;;;;;4979125;28;20034;-59
2022/10/03 04:30:28;;;;;;;1.08;0.47;;;6.50;99.90;;;;;;4975123;28;20461;-58
2022/10/03 04:32:57;;;;;;;0.40;0.40;;;6.60;99.90;;;;;;4976252;28;20081;-59
2022/10/03 04:35:28;;;;;;;0.50;0.40;;;6.40;99.90;;;;;;4981717;28;20042;-59
2022/10/03 04:38:11;;;;;;;1.08;0.55;;;6.40;99.90;;;;;;4964389;28;20474;-58
2022/10/03 04:40:42;;;;;;;0.50;0.50;;;6.50;99.90;;;;;;4978638;28;20034;-60
2022/10/03 04:43:26;;;;;;;1.42;0.57;;;6.50;99.90;;;;;;4974453;28;20034;-59
2022/10/03 04:46:22;;;;;;;0.45;0.43;;;6.50;99.90;;;;;;4983292;28;20046;-57
2022/10/03 04:48:51;;;;;;;0.68;0.60;;;6.60;99.90;;;;;;4972787;28;20042;-58
2022/10/03 04:51:24;;;;;;;2.30;0.70;;;6.70;99.90;;;;;;4981719;28;20027;-59
2022/10/03 04:54:01;;;;;;;1.15;0.68;;;6.70;99.90;;;;;;4974969;28;20034;-58
2022/10/03 04:56:47;;;;;;;1.98;1.00;;;6.70;99.90;;;;;;4986271;28;20030;-58
2022/10/03 04:59:41;;;;;;;1.42;0.85;;;6.80;99.90;;;;;;4973364;28;20086;-59
2022/10/03 05:02:15;;;;;;;0.60;0.57;;;6.80;99.90;;;;;;4976097;28;20027;-58
2022/10/03 05:04:41;;;;;;;1.15;0.93;;;6.80;99.90;;;;;;4980990;28;20038;-59
2022/10/03 05:07:40;;;;;;;1.42;0.52;;;6.90;99.90;;;;;;4979093;28;20034;-59
2022/10/03 05:10:19;;;;;;;1.65;0.80;;;6.90;99.90;;;;;;4971543;28;20066;-58
2022/10/03 05:13:10;;;;;;;0.80;0.50;;;7.00;99.90;;;;;;4974038;28;20165;-58
2022/10/03 05:16:09;;;;;;;0.95;0.57;;;7.00;99.90;;;;;;4979422;28;20042;-59
2022/10/03 05:18:51;;;;;;;1.10;0.50;;;7.10;99.90;;;;;;4978137;28;20027;-59
2022/10/03 05:21:31;;;;;;;1.52;1.15;;;7.20;99.90;;;;;;4978097;28;20043;-58
2022/10/03 05:24:09;;;;;;;1.60;1.48;;;7.20;99.90;;;;;;4970782;28;20038;-59
2022/10/03 05:26:48;;;;;;;2.33;0.70;;;7.30;99.90;;;;;;4968275;28;20031;-59
2022/10/03 05:29:46;;;;;;;5.57;0.90;;;7.20;99.90;;;;;;4974817;28;20434;-58
2022/10/03 05:32:39;;;;;;;3.15;1.10;;;7.30;99.90;;;;;;4975855;28;20022;-58
2022/10/03 05:35:24;;;;;;;2.05;0.98;;;7.30;99.90;;;;;;4979611;28;20046;-59
2022/10/03 05:37:52;;;;;;;3.25;1.23;;;7.50;99.90;;;;;;4987258;28;20026;-58
2022/10/03 05:40:24;;;;;;;1.45;1.10;;;7.50;99.90;;;;;;4970764;28;20086;-58
2022/10/03 05:42:50;;;;;;;1.20;0.63;;;7.60;99.90;;;;;;4983599;28;20130;-58
2022/10/03 05:45:20;;;;;;;1.27;0.60;;;7.60;99.90;;;;;;4982127;28;20074;-57
2022/10/03 05:48:10;;;;;;;0.55;0.55;;;7.60;99.90;;;;;;4975442;28;20062;-58
2022/10/03 05:50:41;;;;;;;2.08;1.05;;;7.70;99.90;;;;;;4977433;28;20049;-59
2022/10/03 05:53:31;;;;;;;2.92;0.93;;;7.80;99.90;;;;;;4986082;28;20490;-59
2022/10/03 05:56:34;;;;;;;2.95;1.63;;;7.80;99.90;;;;;;4981136;28;20046;-58
2022/10/03 05:59:27;;;;;;;4.65;1.05;;;7.90;99.90;;;;;;4973599;28;20437;-59
2022/10/03 06:02:21;;;;;;;1.27;0.80;;;8.00;99.90;;;;;;4978280;28;20043;-59
2022/10/03 06:05:14;;;;;;;3.97;1.75;;;8.10;99.90;;;;;;4975965;28;20038;-59
2022/10/03 06:08:04;;;;;;;2.22;0.93;;;8.00;99.90;;;;;;4978060;28;20435;-59
2022/10/03 06:10:48;;;;;;;5.47;1.02;;;8.10;99.90;;;;;;4977594;28;20034;-58
2022/10/03 06:13:26;;;;;;;1.85;0.93;;;8.10;99.90;;;;;;4968153;28;20937;-59
2022/10/03 06:16:21;;;;;;;1.80;1.02;;;8.20;99.90;;;;;;4982207;28;20053;-59
2022/10/03 06:19:11;;;;;;;9.32;1.73;;;8.30;99.90;;;;;;4977061;28;20035;-60
2022/10/03 06:21:55;;;;;;;4.10;1.48;;;8.30;99.90;;;;;;4978667;28;20035;-59
2022/10/03 06:24:39;;;;;;;5.43;2.22;;;8.30;99.90;;;;;;4976970;28;20121;-60
2022/10/03 06:27:16;;;;;;;2.15;1.40;;;8.40;99.90;;;;;;4988014;28;20389;-59
2022/10/03 06:30:12;;;;;;;1.70;0.95;;;8.40;99.90;;;;;;4976030;28;20114;-59
2022/10/03 06:32:56;;;;;;;3.03;1.55;;;8.50;99.90;;;;;;4979142;28;20034;-60
2022/10/03 06:35:31;;;;;;;1.45;1.17;;;8.60;99.90;;;;;;4981135;28;20053;-59
2022/10/03 06:38:25;;;;;;;3.67;1.27;;;8.70;99.90;;;;;;4976183;28;20393;-58
2022/10/03 06:41:12;;;;;;;6.85;1.20;;;8.70;99.90;;;;;;4976925;28;20384;-58
2022/10/03 06:44:02;;;;;;;1.17;0.85;;;8.90;99.90;;;;;;4976886;28;20038;-59
2022/10/03 06:46:44;;;;;;;2.67;1.00;;;8.90;99.90;;;;;;4969968;28;20034;-58
2022/10/03 06:49:46;;;;;;;0.98;0.88;;;8.90;99.90;;;;;;4982966;28;20018;-58
2022/10/03 06:52:38;;;;;;;1.83;0.98;;;8.90;99.90;;;;;;4975075;28;20034;-58
2022/10/03 06:55:28;;;;;;;4.10;1.40;;;8.90;99.90;;;;;;4953608;28;20491;-58
2022/10/03 06:58:06;;;;;;;2.03;1.05;;;9.00;99.90;;;;;;4975492;28;20402;-58
2022/10/03 07:01:02;;;;;;;2.00;1.10;;;9.00;99.90;;;;;;4964689;28;20038;-58
2022/10/03 07:03:58;;;;;;;3.75;1.08;;;9.00;99.90;;;;;;4964283;28;20054;-57
2022/10/03 07:07:07;;;;;;;2.00;0.63;;;9.10;99.90;;;;;;4970138;28;20031;-59
2022/10/03 07:09:44;;;;;;;1.88;1.05;;;9.20;99.90;;;;;;4968603;28;20439;-59
2022/10/03 07:12:46;;;;;;;2.17;1.13;;;9.20;99.90;;;;;;4975414;28;20030;-57
2022/10/03 07:15:40;;;;;;;5.90;1.25;;;9.30;99.90;;;;;;4977995;28;20030;-59
2022/10/03 07:18:40;;;;;;;9.63;1.85;;;9.30;99.90;;;;;;4983944;28;20084;-59
2022/10/03 07:21:38;;;;;;;2.78;0.85;;;9.40;99.90;;;;;;4970994;28;20487;-59
2022/10/03 07:24:40;;;;;;;4.43;1.35;;;9.60;99.90;;;;;;4962353;28;20137;-58
2022/10/03 07:27:20;;;;;;;5.53;0.90;;;9.60;99.90;;;;;;4965698;28;20027;-60
2022/10/03 07:30:10;;;;;;;2.80;1.05;;;9.70;99.90;;;;;;4971192;28;20030;-59
2022/10/03 07:33:06;;;;;;;4.25;1.50;;;9.70;99.90;;;;;;4966120;28;20084;-58
2022/10/03 07:38:57;;;;;;;2.05;0.80;;;9.70;99.90;;;;;;4971051;28;20033;-59
2022/10/03 07:41:35;;;;;;;7.50;1.73;;;9.70;99.90;;;;;;4977061;28;20039;-59
2022/10/03 07:44:28;;;;;;;2.15;1.10;;;9.70;99.90;;;;;;4963229;28;20057;-59
2022/10/03 07:47:12;;;;;;;1.00;0.77;;;9.90;99.90;;;;;;4975018;28;20045;-61
2022/10/03 07:49:56;;;;;;;1.58;1.08;;;10.00;99.90;;;;;;4968424;28;20511;-58
2022/10/03 07:52:46;;;;;;;4.50;1.50;;;10.10;99.90;;;;;;4965434;28;20038;-58
2022/10/03 07:55:20;;;;;;;3.58;2.30;;;10.30;99.90;;;;;;4972630;28;20459;-59
2022/10/03 07:58:06;;;;;;;1.55;1.10;;;10.40;99.90;;;;;;4978388;28;20040;-59
2022/10/03 08:00:40;;;;;;;2.17;1.45;;;10.40;99.90;;;;;;4970310;28;20491;-60
2022/10/03 08:03:23;;;;;;;3.60;1.80;;;10.40;99.90;;;;;;4976728;28;20117;-59
2022/10/03 08:06:17;;;;;;;5.53;1.30;;;10.40;99.90;;;;;;4969792;28;20058;-60
2022/10/03 08:09:03;;;;;;;2.55;1.48;;;10.40;99.90;;;;;;4969417;28;20482;-59
2022/10/03 08:11:56;;;;;;;2.47;1.50;;;10.40;99.90;;;;;;4971554;28;20023;-59
2022/10/03 08:14:44;;;;;;;1.60;0.80;;;10.40;99.90;;;;;;4974084;28;20042;-59
2022/10/03 08:17:09;;;;;;;1.85;1.00;;;10.60;99.90;;;;;;4975853;28;20023;-58
2022/10/03 08:20:13;;;;;;;2.85;1.48;;;10.60;99.90;;;;;;4972380;28;20434;-59
2022/10/03 08:23:03;;;;;;;2.65;0.93;;;10.60;99.90;;;;;;4965670;28;20038;-60
2022/10/03 08:26:31;;;;;;;4.20;1.33;;;10.70;99.90;;;;;;4972322;28;20471;-60
2022/10/03 08:29:19;;;;;;;2.30;1.10;;;10.70;99.90;;;;;;4946228;28;20036;-59
2022/10/03 08:32:01;;;;;;;5.38;1.55;;;10.70;99.90;;;;;;4965379;28;20031;-59
2022/10/03 08:34:38;;;;;;;;;;;10.70;99.90;;;;;;4969229;28;20371;-59
2022/10/03 08:37:06;;;;;;;3.40;1.05;;;10.70;99.90;;;;;;4970846;28;20314;-59
2022/10/03 08:39:41;;;;;;;3.53;1.35;;;10.80;99.90;;;;;;4971801;28;20046;-60
2022/10/03 08:42:28;;;;;;;4.85;1.13;;;10.80;99.90;;;;;;4968382;28;20394;-60
2022/10/03 08:45:26;;;;;;;2.00;1.30;;;10.90;99.90;;;;;;4968888;28;20050;-57
2022/10/03 08:48:29;;;;;;;4.15;1.23;;;10.90;99.90;;;;;;4973639;28;20019;-60
2022/10/03 08:51:25;;;;;;;4.07;1.67;;;10.90;99.90;;;;;;4967650;28;20038;-59
2022/10/03 08:54:18;;;;;;;3.17;1.80;;;10.90;99.90;;;;;;4972566;28;20058;-59
2022/10/03 08:57:08;;;;;;;1.70;1.25;;;11.00;99.90;;;;;;4974157;28;20038;-59
2022/10/03 09:00:11;;;;;;;2.40;1.55;;;11.10;99.90;;;;;;4978355;28;20094;-60
2022/10/03 09:02:52;;;;;;;4.18;1.30;;;11.20;99.90;;;;;;4968669;28;20030;-58
2022/10/03 09:05:29;;;;;;;4.45;1.40;;;11.40;99.90;;;;;;4974808;28;20041;-60
2022/10/03 09:08:16;;;;;;;2.88;1.20;;;11.60;99.90;;;;;;4977512;28;20080;-58
2022/10/03 09:11:19;;;;;;;5.03;1.58;;;11.70;99.90;;;;;;4974529;28;20536;-58
2022/10/03 09:14:00;;;;;;;5.30;1.67;;;11.90;99.90;;;;;;4985028;28;20026;-58
2022/10/03 09:16:32;;;;;;;4.22;1.25;;;12.20;99.90;;;;;;4975898;28;20057;-59
2022/10/03 09:19:24;;;;;;;5.10;1.73;;;12.40;99.90;;;;;;4978493;28;20029;-59
2022/10/03 09:22:03;;;;;;;1.85;1.45;;;12.70;99.90;;;;;;4981881;28;20065;-60
2022/10/03 09:25:06;;;;;;;3.58;1.77;;;13.10;99.90;;;;;;4974070;28;20117;-59
2022/10/03 09:27:35;;;;;;;5.22;1.52;;;13.40;99.90;;;;;;4988222;28;20470;-58
2022/10/03 09:30:23;;;;;;;3.15;1.45;;;13.60;99.90;;;;;;4977386;28;20077;-59
2022/10/03 09:33:27;;;;;;;5.72;1.73;;;13.70;99.90;;;;;;4976297;28;20077;-59
2022/10/03 09:36:11;;;;;;;6.53;1.70;;;13.80;99.90;;;;;;4976277;28;20045;-59
2022/10/03 09:38:55;;;;;;;5.72;2.08;;;13.90;99.90;;;;;;4967653;28;20491;-58
2022/10/03 09:41:55;;;;;;;3.97;1.50;;;14.00;99.90;;;;;;4987519;28;20485;-58
2022/10/03 09:44:32;;;;;;;5.85;1.40;;;14.10;99.90;;;;;;4979574;28;20046;-58
2022/10/03 09:47:34;;;;;;;3.67;1.40;;;14.30;99.90;;;;;;4975440;28;20098;-58
2022/10/03 09:50:12;;;;;;;3.80;1.40;;;14.40;99.90;;;;;;4975658;28;20030;-59
2022/10/03 09:53:23;;;;;;;3.92;1.30;;;14.50;99.90;;;;;;4976898;28;20069;-60
2022/10/03 09:55:55;;;;;;;5.05;2.17;;;14.70;99.90;;;;;;4971449;28;20097;-59
2022/10/03 09:58:47;;;;;;;8.67;1.50;;;14.90;99.90;;;;;;4980830;28;20034;-59
2022/10/03 10:01:27;;;;;;;4.78;1.38;;;15.00;99.90;;;;;;4985010;28;20030;-62
2022/10/03 10:04:24;;;;;;;5.70;1.40;;;15.10;99.90;;;;;;4968606;28;20030;-59
2022/10/03 10:07:28;;;;;;;9.15;2.47;;;15.30;99.90;;;;;;4973595;28;20316;-59
2022/10/03 10:10:13;;;;;;;2.55;1.10;;;15.40;99.90;;;;;;4975234;28;20505;-59
2022/10/03 10:13:12;;;;;;;4.65;1.98;;;15.50;99.90;;;;;;4971787;28;20519;-59
2022/10/03 10:16:14;;;;;;;3.13;1.80;;;15.70;99.90;;;;;;4981674;28;20502;-60
2022/10/03 10:18:59;;;;;;;4.72;1.65;;;15.70;99.90;;;;;;4969349;28;20422;-59
2022/10/03 10:21:30;;;;;;;3.78;1.10;;;15.80;99.90;;;;;;4970805;28;20117;-59
2022/10/03 10:24:22;;;;;;;9.98;1.65;;;15.90;99.90;;;;;;4978210;28;20025;-58
2022/10/03 10:26:58;;;;;;;4.03;1.80;;;16.00;99.90;;;;;;4972466;28;20027;-59
2022/10/03 10:29:42;;;;;;;15.07;4.40;;;16.20;99.90;;;;;;4974183;28;20123;-58
2022/10/03 10:32:45;;;;;;;6.18;1.23;;;16.20;99.90;;;;;;4983613;28;20472;-59
2022/10/03 10:35:44;;;;;;;3.28;1.60;;;16.20;99.90;;;;;;4980005;28;20035;-58
2022/10/03 10:38:25;;;;;;;13.38;1.30;;;16.20;99.90;;;;;;4973802;28;20023;-59
2022/10/03 10:41:19;;;;;;;3.65;1.73;;;16.30;99.90;;;;;;4981098;28;20058;-59
2022/10/03 10:44:13;;;;;;;2.38;1.33;;;16.30;99.90;;;;;;4968058;28;20030;-58
2022/10/03 10:47:04;;;;;;;5.20;1.75;;;16.30;99.90;;;;;;4971070;28;20042;-60
2022/10/03 10:50:04;;;;;;;6.78;1.40;;;16.40;99.90;;;;;;4954579;28;20116;-60
2022/10/03 10:53:07;;;;;;;7.35;1.30;;;16.80;99.90;;;;;;4976563;28;20037;-59
2022/10/03 10:56:05;;;;;;;6.05;1.13;;;17.30;99.90;;;;;;4973119;28;20031;-59
2022/10/03 10:58:58;;;;;;;1.10;0.65;;;17.70;99.90;;;;;;4930825;29;20150;-58
2022/10/03 11:01:45;;;;;;;3.10;0.68;;;17.90;99.90;;;;;;4931451;29;20118;-59
2022/10/03 11:04:22;;;;;;;5.95;1.27;;;18.20;99.90;;;;;;4935284;29;20036;-59
2022/10/03 11:07:18;;;;;;;6.00;1.50;;;19.10;99.90;;;;;;4929381;29;20032;-60
2022/10/03 11:09:54;;;;;;;5.07;1.05;;;19.60;99.90;;;;;;4930667;29;20035;-58
2022/10/03 11:12:46;;;;;;;5.35;0.90;;;19.50;99.90;;;;;;4927715;29;20472;-60
2022/10/03 11:15:31;;;;;;;4.95;0.75;;;19.90;99.90;;;;;;4917754;29;20051;-57
2022/10/03 11:18:00;;;;;;;3.38;0.70;;;20.50;99.90;;;;;;4933519;29;20077;-61
2022/10/03 11:20:53;;;;;;;3.40;0.90;;;20.50;99.90;;;;;;4932572;29;20060;-58
2022/10/03 11:24:04;;;;;;;2.38;0.63;;;21.00;99.90;;;;;;4936972;29;20179;-58
2022/10/03 11:26:29;;;;;;;3.20;1.02;;;21.10;99.90;;;;;;4938331;29;20031;-59
2022/10/03 11:29:31;;;;;;;2.88;0.85;;;21.10;99.90;;;;;;4937489;28;20384;-58
2022/10/03 11:32:29;;;;;;;4.30;0.98;;;21.60;99.90;;;;;;4923629;29;20031;-59
2022/10/03 11:35:07;;;;;;;2.75;0.65;;;21.80;99.90;;;;;;4971069;28;20481;-59
2022/10/03 11:37:45;;;;;;;2.03;0.60;;;21.30;99.90;;;;;;4978747;28;20023;-58
2022/10/03 11:40:20;;;;;;;1.08;0.50;;;21.20;99.90;;;;;;4970686;28;20035;-58
2022/10/03 11:43:16;;;;;;;5.60;0.77;;;21.10;99.90;;;;;;4966287;28;20669;-59
2022/10/03 11:45:53;;;;;;;2.55;0.47;;;21.40;99.90;;;;;;4972152;28;20050;-59
2022/10/03 11:48:33;;;;;;;4.30;0.77;;;21.70;99.90;;;;;;4981463;28;20446;-59
2022/10/03 11:51:07;;;;;;;0.93;0.55;;;21.50;99.90;;;;;;4974137;28;20360;-60
2022/10/03 11:53:36;;;;;;;3.78;1.23;;;21.80;99.90;;;;;;4970392;28;20549;-60
2022/10/03 11:56:24;;;;;;;4.75;1.15;;;22.30;99.90;;;;;;4971663;28;20050;-58
2022/10/03 11:59:01;;;;;;;4.05;0.65;;;22.60;99.90;;;;;;4971872;28;20058;-59
2022/10/03 12:01:48;;;;;;;2.28;0.63;;;22.60;99.90;;;;;;4972516;28;20030;-60
2022/10/03 12:04:27;;;;;;;3.90;1.23;;;22.20;99.90;;;;;;4973783;28;20027;-58
2022/10/03 12:10:22;;;;;;;1.08;0.43;;;21.70;99.90;;;;;;4974870;28;20069;-59
2022/10/03 12:12:53;;;;;;;1.85;0.70;;;21.80;99.90;;;;;;4963870;28;20060;-59
2022/10/03 12:15:45;;;;;;;3.05;0.85;;;21.80;99.90;;;;;;4974367;28;20031;-59
2022/10/03 12:18:39;;;;;;;4.80;0.98;;;21.90;99.90;;;;;;4980963;28;20029;-59
2022/10/03 12:21:31;;;;;;;2.47;0.52;;;22.40;99.90;;;;;;4974886;28;20038;-59
2022/10/03 12:24:11;;;;;;;;;;;22.70;99.90;;;;;;4978656;28;20030;-58
2022/10/03 12:27:01;;;;;;;5.28;0.70;;;23.20;99.90;;;;;;4977953;28;19959;-58
2022/10/03 12:29:31;;;;;;;3.63;0.90;;;23.40;98.20;;;;;;4977886;28;20102;-59
2022/10/03 12:32:03;;;;;;;2.85;0.60;;;23.00;98.80;;;;;;4974136;28;20409;-59
2022/10/03 12:34:50;;;;;;;3.25;1.48;;;22.20;99.90;;;;;;4975301;28;20048;-58
2022/10/03 12:37:43;;;;;;;3.30;0.73;;;21.20;99.90;;;;;;4972343;28;20042;-58
2022/10/03 12:40:14;;;;;;;3.78;0.90;;;22.00;99.90;;;;;;4969996;28;20023;-59
2022/10/03 12:43:20;;;;;;;4.68;0.60;;;22.30;99.90;;;;;;4975787;28;20121;-59
2022/10/03 12:46:09;;;;;;;3.25;1.02;;;22.30;99.90;;;;;;4966503;28;20185;-58
2022/10/03 12:48:47;;;;;;;1.73;0.63;;;22.00;99.90;;;;;;4978538;28;20122;-58
2022/10/03 12:51:15;;;;;;;5.38;0.88;;;22.30;99.90;;;;;;4981081;28;20026;-59
2022/10/03 12:54:00;;;;;;;5.60;0.82;;;21.70;99.90;;;;;;4972717;28;20078;-58
2022/10/03 12:56:45;;;;;;;2.67;0.52;;;21.60;99.90;;;;;;4974985;28;20053;-57
2022/10/03 12:59:46;;;;;;;5.55;0.98;;;21.70;99.90;;;;;;4986855;28;20034;-59
2022/10/03 13:02:23;;;;;;;4.75;0.63;;;22.20;99.90;;;;;;4978446;28;20054;-58
2022/10/03 13:04:55;;;;;;;3.22;0.98;;;22.50;99.80;;;;;;4967281;28;20031;-59
2022/10/03 13:07:41;;;;;;;5.78;0.77;;;22.70;99.90;;;;;;4972107;28;20463;-58
2022/10/03 13:10:40;;;;;;;3.90;0.98;;;22.60;99.90;;;;;;4974876;28;20471;-59
2022/10/03 13:13:44;;;;;;;6.45;1.02;;;22.50;99.90;;;;;;4973441;28;20035;-58
2022/10/03 13:16:30;;;;;;;1.73;0.50;;;22.80;99.00;;;;;;4978409;28;20506;-58
2022/10/03 13:19:34;;;;;;;1.27;0.45;;;22.00;98.20;;;;;;4978762;28;20503;-59
2022/10/03 13:22:08;;;;;;;4.65;0.52;;;22.10;99.70;;;;;;4945991;28;20452;-58
2022/10/03 13:24:40;;;;;;;1.35;0.60;;;22.00;99.10;;;;;;4956818;28;20085;-60
2022/10/03 13:27:25;;;;;;;1.75;0.65;;;22.20;99.90;;;;;;4972920;28;20043;-60
2022/10/03 13:30:37;;;;;;;3.92;0.90;;;22.30;99.90;;;;;;4972653;28;20030;-59
2022/10/03 13:33:26;;;;;;;2.13;0.73;;;22.70;99.90;;;;;;4974363;28;20084;-59
2022/10/03 13:36:16;;;;;;;1.23;0.93;;;22.80;99.70;;;;;;4976956;28;20053;-59
2022/10/03 13:38:48;;;;;;;4.32;0.75;;;22.20;99.90;;;;;;4971176;28;20031;-59
2022/10/03 13:41:26;;;;;;;2.22;0.73;;;22.20;99.90;;;;;;4972984;28;20093;-60
2022/10/03 13:43:59;;;;;;;5.10;0.80;;;22.00;99.90;;;;;;4968538;28;20097;-58
2022/10/03 13:46:41;;;;;;;3.97;1.52;;;21.70;99.90;;;;;;4972082;28;20042;-58
2022/10/03 13:49:31;;;;;;;4.13;0.90;;;22.10;99.90;;;;;;4972278;28;20437;-60
2022/10/03 13:52:16;;;;;;;3.17;0.70;;;22.20;99.90;;;;;;4978498;28;20030;-60
2022/10/03 13:54:56;;;;;;;4.50;0.65;;;22.40;99.90;;;;;;4969670;28;20043;-58
2022/10/03 13:57:28;;;;;;;4.35;0.82;;;22.30;99.90;;;;;;4973156;28;20379;-59
2022/10/03 14:00:15;;;;;;;5.60;1.10;;;22.10;99.90;;;;;;4971929;28;20536;-59
2022/10/03 14:02:53;;;;;;;3.55;0.28;;;22.10;99.90;;;;;;4973042;28;20046;-59
2022/10/03 14:05:22;;;;;;;2.35;0.45;;;21.80;99.90;;;;;;4986802;28;20035;-58
2022/10/03 14:07:54;;;;;;;3.45;0.80;;;21.50;99.90;;;;;;4974604;28;20090;-59
2022/10/03 14:10:36;;;;;;;3.13;1.05;;;21.10;99.90;;;;;;4972146;28;20034;-59
2022/10/03 14:13:04;;;;;;;;;;;20.90;99.90;;;;;;4975002;28;20019;-58
2022/10/03 14:15:48;;;;;;;2.17;0.50;;;20.90;99.90;;;;;;4979311;28;19933;-60
2022/10/03 14:18:35;;;;;;;2.08;0.65;;;21.30;99.90;;;;;;4982187;28;20030;-58
2022/10/03 14:21:22;;;;;;;2.60;0.70;;;21.20;99.90;;;;;;4973954;28;20046;-60
2022/10/03 14:24:19;;;;;;;2.42;0.70;;;21.80;99.90;;;;;;4968125;28;20034;-58
2022/10/03 14:27:12;;;;;;;2.25;0.70;;;22.30;99.90;;;;;;4965776;28;20122;-59
2022/10/03 14:29:43;;;;;;;3.13;0.70;;;22.50;99.90;;;;;;4975070;28;20100;-58
2022/10/03 14:32:25;;;;;;;2.58;0.57;;;22.10;99.90;;;;;;4980024;28;20049;-58
2022/10/03 14:35:19;;;;;;;2.45;0.75;;;22.10;99.90;;;;;;4973575;28;20042;-58
2022/10/03 14:38:56;;;;;;;2.35;0.47;;;22.10;99.90;;;;;;4971111;28;20035;-58
2022/10/03 14:41:20;;;;;;;4.63;1.02;;;22.10;99.90;;;;;;4986721;28;20072;-59